To NAV CANADA Home Page Login to a new session Search on AWWS site Feedback and Comments Disclaimer Vers la page française équivalente Tips FAQ What's new on the site To the Forecasts and Observations / NOTAM section To "File a Flight Plan" website Publications and other links Update of the User's profile FIC Telephone Numbers My Weather Data Folder Route Weather Data Regional Weather Data Local Weather Data To the Forecasts and Observations / NOTAM section
Request Generated 03/29/2015 at 03:04:57 UTC . Weather information available at that time is displayed.

METAR/TAF

ARVIAT/NU    

METAR CYEK 290300Z AUTO 04018G24KT 1SM -SN FEW012 OVC095 M15/M17
A2963 RMK PRESRR SLP034=
METAR CYEK 290200Z AUTO 04020G26KT 3/4SM -SN SCT011 BKN085 M15/M16
A2961 RMK PRESRR SLP026=
SPECI CYEK 290119Z AUTO 05020G26KT 5/8SM -SN SCT018 OVC033 M15/M16
A2959 RMK SLP020=
METAR CYEK 290100Z AUTO 04022G27KT 3/8SM SN BKN016 OVC035 M14/M16
A2957 RMK PRESRR SLP015=

TAF CYEK 282338Z 2900/2912 06025KT 1/4SM -SN +BLSN VV003 TEMPO
2902/2904 3SM BLSN
FM290400 04015KT P6SM BKN030 TEMPO 2904/2906 2SM -SN BLSN
FM290600 02015KT P6SM SCT030
RMK FCST BASED ON AUTO OBS. NXT FCST BY 290600Z=
Your time UTC time
Weather data provided by Environment Canada and NAV CANADA